.
WxDataArchive / Data Records for 2015-01-08
2015-01-07 January 2015 2015-01-09

Data Records for Thursday, 08 January 2015

Time	Temp	Chill	HIndex	Humid	Dewpt	 Wind 	HiWind	WindDir	Rain 	Barom
-----	----	-----	------	-----	-----	------	------	-------	-----	-----
00:00	-2.2	-2.2	-2.2	59	-13.0	1	3	248	0.00	30.678 
00:05	-2.4	-2.4	-2.4	59	-13.2	1	3	248	0.00	30.678 
00:10	-2.4	-2.4	-2.4	60	-12.8	1	3	248	0.00	30.678 
00:15	-2.6	-2.6	-2.6	60	-13.0	1	2	248	0.00	30.674 
00:20	-2.6	-2.6	-2.6	60	-13.0	1	3	248	0.00	30.674 
00:25	-2.6	-2.6	-2.6	60	-13.0	1	3	248	0.00	30.674 
00:30	-2.8	-2.8	-2.8	60	-13.2	1	3	248	0.00	30.673 
00:35	-2.8	-2.8	-2.8	60	-13.2	0	4	248	0.00	30.673 
00:40	-2.8	-2.8	-2.8	60	-13.2	1	2	248	0.00	30.673 
00:45	-3.1	-3.1	-3.1	60	-13.5	1	2	248	0.00	30.667 
00:50	-3.3	-3.3	-3.3	60	-13.7	1	4	248	0.00	30.667 
00:55	-3.3	-3.3	-3.3	61	-13.3	1	4	248	0.00	30.667 
01:00	-3.5	-3.5	-3.5	61	-13.5	1	3	248	0.00	30.663 
01:05	-3.5	-3.5	-3.5	61	-13.5	0	2	248	0.00	30.663 
01:10	-3.7	-3.7	-3.7	61	-13.7	0	2	248	0.00	30.663 
01:15	-3.7	-3.7	-3.7	61	-13.7	1	3	248	0.00	30.660 
01:20	-3.9	-3.9	-3.9	61	-13.9	1	3	248	0.00	30.660 
01:25	-3.9	-3.9	-3.9	61	-13.9	1	3	248	0.00	30.660 
01:30	-3.9	-3.9	-3.9	61	-13.9	1	4	248	0.00	30.654 
01:35	-4.1	-4.1	-4.1	61	-14.1	1	3	248	0.00	30.654 
01:40	-4.1	-4.1	-4.1	61	-14.1	1	3	248	0.00	30.654 
01:45	-4.3	-4.3	-4.3	61	-14.3	1	3	248	0.00	30.648 
01:50	-4.6	-4.6	-4.6	62	-14.3	1	3	248	0.00	30.648 
01:55	-4.6	-4.6	-4.6	62	-14.3	1	3	248	0.00	30.648 
02:00	-4.6	-4.6	-4.6	62	-14.3	1	4	248	0.00	30.654 
02:05	-4.8	-4.8	-4.8	62	-14.4	1	3	248	0.00	30.654 
02:10	-4.8	-4.8	-4.8	62	-14.4	1	3	248	0.00	30.654 
02:15	-4.8	-4.8	-4.8	62	-14.4	1	3	248	0.00	30.650 
02:20	-5.0	-5.0	-5.0	62	-14.6	1	3	248	0.00	30.650 
02:25	-5.0	-5.0	-5.0	62	-14.6	1	4	270	0.00	30.650 
02:30	-5.0	-5.0	-5.0	62	-14.6	1	4	248	0.00	30.654 
02:35	-5.0	-5.0	-5.0	62	-14.6	1	3	248	0.00	30.654 
02:40	-5.0	-5.0	-5.0	63	-14.3	1	3	248	0.00	30.654 
02:45	-5.0	-5.0	-5.0	63	-14.3	2	4	248	0.00	30.661 
02:50	-5.0	-5.0	-5.0	63	-14.3	1	4	270	0.00	30.661 
02:55	-5.2	-5.2	-5.2	63	-14.5	2	6	248	0.00	30.661 
03:00	-5.2	-5.2	-5.2	63	-14.5	1	2	270	0.00	30.651 
03:05	-5.4	-5.4	-5.4	63	-14.7	1	3	248	0.00	30.651 
03:10	-5.4	-5.4	-5.4	64	-14.4	1	4	248	0.00	30.651 
03:15	-5.4	-5.4	-5.4	64	-14.4	1	3	248	0.00	30.650 
03:20	-5.4	-5.4	-5.4	64	-14.4	1	3	248	0.00	30.650 
03:25	-5.6	-5.6	-5.6	64	-14.6	1	4	248	0.00	30.650 
03:30	-5.6	-5.6	-5.6	65	-14.3	1	4	248	0.00	30.647 
03:35	-5.6	-5.6	-5.6	65	-14.3	1	4	270	0.00	30.647 
03:40	-5.6	-5.6	-5.6	65	-14.3	1	3	270	0.00	30.647 
03:45	-5.6	-5.6	-5.6	65	-14.3	2	6	248	0.00	30.644 
03:50	-5.6	-5.6	-5.6	65	-14.3	1	4	248	0.00	30.644 
03:55	-5.6	-5.6	-5.6	65	-14.3	1	3	248	0.00	30.644 
04:00	-5.6	-5.6	-5.6	65	-14.3	1	3	248	0.00	30.635 
04:05	-5.6	-5.6	-5.6	65	-14.3	1	4	248	0.00	30.635 
04:10	-5.6	-5.6	-5.6	65	-14.3	1	2	270	0.00	30.635 
04:15	-5.9	-5.9	-5.9	65	-14.6	1	4	270	0.00	30.632 
04:20	-5.6	-5.6	-5.6	65	-14.3	1	3	248	0.00	30.632 
04:25	-5.6	-5.6	-5.6	65	-14.3	1	3	248	0.00	30.632 
04:30	-5.6	-5.6	-5.6	64	-14.6	1	3	248	0.00	30.633 
04:35	-5.9	-5.9	-5.9	64	-14.9	1	2	248	0.00	30.633 
04:40	-5.9	-5.9	-5.9	64	-14.9	1	5	248	0.00	30.633 
04:45	-5.9	-5.9	-5.9	64	-14.9	1	3	248	0.00	30.627 
04:50	-5.9	-5.9	-5.9	64	-14.9	1	4	270	0.00	30.627 
04:55	-5.9	-5.9	-5.9	64	-14.9	1	4	270	0.00	30.627 
05:00	-5.9	-5.9	-5.9	64	-14.9	1	7	248	0.00	30.624 
05:05	-5.9	-5.9	-5.9	64	-14.9	1	4	248	0.00	30.624 
05:10	-6.1	-6.1	-6.1	64	-15.1	1	4	248	0.00	30.624 
05:15	-6.1	-6.1	-6.1	64	-15.1	1	5	248	0.00	30.610 
05:20	-6.1	-6.1	-6.1	64	-15.1	1	4	248	0.00	30.610 
05:25	-6.3	-6.3	-6.3	65	-14.9	1	3	248	0.00	30.610 
05:30	-6.3	-6.3	-6.3	65	-14.9	1	3	248	0.00	30.603 
05:35	-6.3	-6.3	-6.3	65	-14.9	0	2	248	0.00	30.603 
05:40	-6.5	-6.5	-6.5	65	-15.1	0	3	248	0.00	30.603 
05:45	-6.5	-6.5	-6.5	65	-15.1	0	2	248	0.00	30.599 
05:50	-6.5	-6.5	-6.5	65	-15.1	0	3	248	0.00	30.599 
05:55	-6.5	-6.5	-6.5	66	-14.8	0	2	248	0.00	30.599 
06:00	-6.8	-6.8	-6.8	66	-15.1	0	3	248	0.00	30.599 
06:05	-6.8	-6.8	-6.8	66	-15.1	1	3	248	0.00	30.599 
06:10	-6.8	-6.8	-6.8	66	-15.1	0	1	248	0.00	30.599 
06:15	-6.8	-6.8	-6.8	66	-15.1	0	3	248	0.00	30.587 
06:20	-6.8	-6.8	-6.8	66	-15.1	1	3	270	0.00	30.587 
06:25	-7.0	-7.0	-7.0	66	-15.3	0	2	248	0.00	30.587 
06:30	-7.0	-7.0	-7.0	67	-15.0	0	3	248	0.00	30.577 
06:35	-7.0	-7.0	-7.0	67	-15.0	0	2	248	0.00	30.577 
06:40	-7.0	-7.0	-7.0	67	-15.0	1	3	248	0.00	30.577 
06:45	-7.0	-7.0	-7.0	67	-15.0	1	3	248	0.00	30.578 
06:50	-6.8	-6.8	-6.8	67	-14.8	1	4	248	0.00	30.578 
06:55	-6.8	-6.8	-6.8	67	-14.8	1	4	248	0.00	30.578 
07:00	-6.8	-6.8	-6.8	67	-14.8	1	5	248	0.00	30.577 
07:05	-7.0	-7.0	-7.0	67	-15.0	1	3	248	0.00	30.577 
07:10	-7.0	-7.0	-7.0	67	-15.0	1	4	248	0.00	30.577 
07:15	-7.0	-7.0	-7.0	67	-15.0	1	3	270	0.00	30.566 
07:20	-7.0	-7.0	-7.0	67	-15.0	1	4	248	0.00	30.566 
07:25	-7.0	-7.0	-7.0	67	-15.0	1	4	248	0.00	30.566 
07:30	-6.8	-6.8	-6.8	68	-14.5	1	3	248	0.00	30.558 
07:35	-6.8	-6.8	-6.8	68	-14.5	0	3	248	0.00	30.558 
07:40	-6.8	-6.8	-6.8	68	-14.5	0	3	248	0.00	30.558 
07:45	-6.8	-6.8	-6.8	68	-14.5	0	2	248	0.00	30.549 
07:50	-6.8	-6.8	-6.8	68	-14.5	0	2	248	0.00	30.549 
07:55	-6.5	-6.5	-6.5	68	-14.3	1	3	248	0.00	30.549 
08:00	-6.5	-6.5	-6.5	68	-14.3	0	2	248	0.00	30.548 
08:05	-6.5	-6.5	-6.5	68	-14.3	1	4	248	0.00	30.548 
08:10	-6.5	-6.5	-6.5	68	-14.3	0	2	225	0.00	30.548 
08:15	-6.5	-6.5	-6.5	68	-14.3	1	4	248	0.00	30.547 
08:20	-6.3	-6.3	-6.3	68	-14.1	0	1	248	0.00	30.547 
08:25	-6.3	-6.3	-6.3	68	-14.1	1	3	248	0.00	30.547 
08:30	-6.1	-6.1	-6.1	68	-13.9	0	2	248	0.00	30.548 
08:35	-6.1	-6.1	-6.1	68	-13.9	1	3	248	0.00	30.548 
08:40	-5.9	-5.9	-5.9	67	-14.0	1	4	248	0.00	30.548 
08:45	-5.6	-5.6	-5.6	67	-13.7	1	2	248	0.00	30.534 
08:50	-5.4	-5.4	-5.4	67	-13.5	0	2	248	0.00	30.534 
08:55	-5.4	-5.4	-5.4	67	-13.5	0	2	248	0.00	30.534 
09:00	-5.2	-5.2	-5.2	67	-13.3	0	4	248	0.00	30.531 
09:05	-5.0	-5.0	-5.0	66	-13.4	0	2	248	0.00	30.531 
09:10	-4.8	-4.8	-4.8	66	-13.2	0	2	248	0.00	30.531 
09:15	-4.8	-4.8	-4.8	66	-13.2	1	3	248	0.00	30.531 
09:20	-4.8	-4.8	-4.8	66	-13.2	1	5	248	0.00	30.531 
09:25	-4.8	-4.8	-4.8	65	-13.5	1	3	248	0.00	30.531 
09:30	-4.6	-4.6	-4.6	65	-13.3	1	4	248	0.00	30.534 
09:35	-4.6	-4.6	-4.6	65	-13.3	1	5	248	0.00	30.534 
09:40	-4.3	-4.3	-4.3	65	-13.0	0	2	248	0.00	30.534 
09:45	-4.1	-4.1	-4.1	65	-12.8	1	4	248	0.00	30.523 
09:50	-4.1	-4.1	-4.1	65	-12.8	1	5	248	0.00	30.523 
09:55	-3.9	-3.9	-3.9	65	-12.7	1	4	248	0.00	30.523 
10:00	-3.5	-3.5	-3.5	65	-12.3	1	2	248	0.00	30.505 
10:05	-3.5	-3.5	-3.5	64	-12.6	1	5	248	0.00	30.505 
10:10	-3.3	-3.3	-3.3	64	-12.4	1	3	270	0.00	30.505 
10:15	-3.3	-3.3	-3.3	63	-12.7	1	6	248	0.00	30.507 
10:20	-3.3	-3.3	-3.3	63	-12.7	2	5	248	0.00	30.507 
10:25	-3.5	-3.5	-3.5	62	-13.2	1	4	248	0.00	30.507 
10:30	-3.5	-3.5	-3.5	63	-12.9	1	7	248	0.00	30.497 
10:35	-3.3	-3.3	-3.3	63	-12.7	2	7	248	0.00	30.497 
10:40	-3.3	-3.3	-3.3	63	-12.7	1	4	248	0.00	30.497 
10:45	-3.1	-3.1	-3.1	62	-12.8	1	6	248	0.00	30.484 
10:50	-2.6	-2.6	-2.6	63	-12.0	1	4	248	0.00	30.484 
10:55	-2.2	-2.2	-2.2	62	-12.0	1	5	248	0.00	30.484 
11:00	-2.0	-2.0	-2.0	62	-11.8	1	3	270	0.00	30.456 
11:05	-1.8	-1.8	-1.8	61	-11.9	1	3	248	0.00	30.456 
11:10	-1.6	-1.6	-1.6	61	-11.7	1	7	248	0.00	30.456 
11:15	-1.4	-1.4	-1.4	61	-11.5	1	3	248	0.00	30.454 
11:20	-1.2	-1.2	-1.2	61	-11.4	1	5	248	0.00	30.454 
11:25	-1.2	-1.2	-1.2	61	-11.4	1	3	248	0.00	30.454 
11:30	-1.0	-1.0	-1.0	61	-11.2	1	3	270	0.00	30.437 
11:35	-0.8	-0.8	-0.8	61	-11.0	1	4	248	0.00	30.437 
11:40	-0.6	-0.6	-0.6	61	-10.8	0	3	248	0.00	30.437 
11:45	-0.4	-0.4	-0.4	61	-10.6	1	4	248	0.00	30.427 
11:50	-0.4	-0.4	-0.4	60	-10.9	1	5	248	0.00	30.427 
11:55	-0.2	-0.2	-0.2	60	-10.7	1	3	270	0.00	30.427 
12:00	0.0	0.0	0.0	60	-10.5	1	4	248	0.00	30.418 
12:05	0.3	0.3	0.3	60	-10.3	0	4	270	0.00	30.418 
12:10	0.3	0.3	0.3	60	-10.3	1	3	248	0.00	30.418 
12:15	0.7	0.7	0.7	60	-9.9	0	3	248	0.00	30.405 
12:20	0.9	0.9	0.9	59	-10.0	1	4	248	0.00	30.405 
12:25	0.9	0.9	0.9	59	-10.0	1	3	248	0.00	30.405 
12:30	1.1	1.1	1.1	59	-9.8	1	5	248	0.00	30.392 
12:35	0.9	0.9	0.9	58	-10.4	1	4	270	0.00	30.392 
12:40	1.1	1.1	1.1	58	-10.2	1	5	248	0.00	30.392 
12:45	1.1	1.1	1.1	58	-10.2	1	4	225	0.00	30.375 
12:50	1.3	1.3	1.3	58	-10.0	1	4	248	0.00	30.375 
12:55	1.5	1.5	1.5	58	-9.8	1	4	248	0.00	30.375 
13:00	1.3	1.3	1.3	58	-10.0	1	4	270	0.00	30.353 
13:05	1.7	1.7	1.7	59	-9.3	1	4	248	0.00	30.353 
13:10	1.8	1.8	1.8	59	-9.2	0	3	270	0.00	30.353 
13:15	1.8	1.8	1.8	60	-8.8	1	6	90	0.00	30.339 
13:20	1.5	1.5	1.5	60	-9.1	1	6	248	0.00	30.339 
13:25	1.5	1.5	1.5	61	-8.8	1	4	248	0.00	30.339 
13:30	1.8	1.8	1.8	61	-8.5	0	4	248	0.00	30.313 
13:35	1.8	1.8	1.8	61	-8.5	1	3	112	0.00	30.313 
13:40	2.0	2.0	2.0	61	-8.3	1	4	270	0.00	30.313 
13:45	2.2	2.2	2.2	60	-8.5	0	4	248	0.00	30.292 
13:50	2.6	2.6	2.6	59	-8.4	1	5	248	0.00	30.292 
13:55	2.6	2.6	2.6	59	-8.4	1	5	248	0.00	30.292 
14:00	2.6	2.6	2.6	59	-8.4	1	4	68	0.00	30.279 
14:05	2.8	2.8	2.8	59	-8.2	1	3	270	0.00	30.279 
14:10	3.0	3.0	3.0	58	-8.4	1	4	248	0.00	30.279 
14:15	3.0	3.0	3.0	58	-8.4	1	5	292	0.00	30.265 
14:20	3.4	3.4	3.4	59	-7.7	0	2	292	0.00	30.265 
14:25	3.5	3.5	3.5	58	-7.9	1	5	248	0.00	30.265 
14:30	3.5	3.5	3.5	58	-7.9	1	3	248	0.00	30.244 
14:35	3.7	3.7	3.7	59	-7.4	1	5	90	0.00	30.244 
14:40	3.9	3.9	3.9	59	-7.2	1	6	292	0.00	30.244 
14:45	3.9	3.9	3.9	59	-7.2	1	5	248	0.00	30.228 
14:50	3.9	3.9	3.9	58	-7.5	2	7	68	0.00	30.228 
14:55	4.1	4.1	4.1	59	-7.0	1	5	248	0.00	30.228 
15:00	4.3	4.3	4.3	59	-6.8	1	5	248	0.00	30.215 
15:05	4.7	4.7	4.7	59	-6.4	0	3	68	0.00	30.215 
15:10	4.8	4.8	4.8	59	-6.3	0	2	68	0.00	30.215 
15:15	5.0	5.0	5.0	58	-6.5	1	5	90	0.00	30.198 
15:20	5.0	5.0	5.0	58	-6.5	2	5	248	0.00	30.198 
15:25	5.2	5.2	5.2	58	-6.3	1	3	270	0.00	30.198 
15:30	5.6	5.6	5.6	59	-5.6	0	3	225	0.00	30.197 
15:35	5.8	5.8	5.8	59	-5.4	1	4	248	0.00	30.197 
15:40	6.0	6.0	6.0	58	-5.6	1	5	248	0.00	30.197 
15:45	6.1	6.1	6.1	58	-5.5	1	4	248	0.00	30.181 
15:50	6.3	6.3	6.3	58	-5.3	1	6	248	0.00	30.181 
15:55	6.5	6.5	6.5	58	-5.1	1	6	68	0.00	30.181 
16:00	6.7	6.7	6.7	59	-4.5	1	3	248	0.00	30.153 
16:05	6.7	6.7	6.7	59	-4.5	1	4	248	0.00	30.153 
16:10	6.9	6.9	6.9	59	-4.4	1	6	90	0.00	30.153 
16:15	6.9	6.9	6.9	60	-4.0	1	9	90	0.00	30.136 
16:20	7.0	7.0	7.0	60	-3.9	1	10	90	0.00	30.136 
16:25	7.0	7.0	7.0	61	-3.6	2	5	90	0.00	30.136 
16:30	7.2	7.2	7.2	61	-3.4	1	6	90	0.00	30.125 
16:35	7.2	7.2	7.2	61	-3.4	1	5	225	0.00	30.125 
16:40	7.2	7.2	7.2	62	-3.0	2	6	112	0.00	30.125 
16:45	7.2	7.2	7.2	63	-2.7	2	6	90	0.00	30.095 
16:50	7.4	7.4	7.4	64	-2.2	1	5	68	0.00	30.095 
16:55	7.6	7.6	7.6	64	-2.0	1	7	90	0.00	30.095 
17:00	7.7	7.7	7.7	64	-1.9	1	6	90	0.00	30.092 
17:05	7.7	7.7	7.7	65	-1.6	1	6	68	0.00	30.092 
17:10	7.9	7.9	7.9	65	-1.4	1	3	248	0.00	30.092 
17:15	7.9	7.9	7.9	66	-1.1	1	5	202	0.00	30.073 
17:20	7.9	7.9	7.9	68	-0.4	1	5	270	0.00	30.073 
17:25	7.9	7.9	7.9	70	0.2	1	7	90	0.00	30.073 
17:30	7.9	7.9	7.9	72	0.8	1	4	248	0.00	30.067 
17:35	7.9	7.9	7.9	73	1.1	0	3	248	0.00	30.067 
17:40	8.1	8.1	8.1	73	1.3	1	5	248	0.00	30.067 
17:45	8.3	8.3	8.3	73	1.5	1	3	338	0.00	30.053 
17:50	8.4	8.4	8.4	72	1.3	1	5	112	0.00	30.053 
17:55	8.6	8.6	8.6	72	1.5	1	4	112	0.00	30.053 
18:00	8.6	8.6	8.6	72	1.5	1	4	248	0.00	30.050 
18:05	8.8	8.8	8.8	73	1.9	1	3	270	0.00	30.050 
18:10	8.8	8.8	8.8	76	2.8	1	7	90	0.00	30.050 
18:15	8.8	8.8	8.8	77	3.1	1	3	68	0.00	30.026 
18:20	8.8	8.8	8.8	78	3.4	1	7	270	0.00	30.026 
18:25	8.8	8.8	8.8	79	3.6	1	5	22	0.00	30.026 
18:30	9.0	9.0	9.0	79	3.8	1	3	270	0.00	30.023 
18:35	9.2	9.2	9.2	80	4.3	1	6	248	0.00	30.023 
18:40	9.3	9.3	9.3	80	4.4	0	3	248	0.00	30.023 
18:45	9.5	9.5	9.5	80	4.6	1	4	45	0.00	30.006 
18:50	9.7	9.7	9.7	81	5.1	1	4	248	0.00	30.006 
18:55	9.9	9.9	9.9	81	5.3	1	7	315	0.00	30.006 
19:00	10.0	10.0	10.0	81	5.4	1	4	270	0.00	30.006 
19:05	10.2	10.2	10.2	81	5.6	1	6	270	0.00	30.006 
19:10	10.4	10.4	10.4	81	5.7	2	7	248	0.00	30.006 
19:15	10.4	10.4	10.4	81	5.7	2	9	248	0.00	30.001 
19:20	10.5	10.5	10.5	81	5.8	1	5	248	0.00	30.001 
19:25	10.5	10.5	10.5	81	5.8	1	5	248	0.00	30.001 
19:30	10.5	10.5	10.5	81	5.8	1	5	248	0.00	29.988 
19:35	10.7	10.7	10.7	82	6.3	2	6	248	0.00	29.988 
19:40	10.7	10.7	10.7	82	6.3	2	6	248	0.00	29.988 
19:45	10.9	10.9	10.9	82	6.5	2	10	270	0.00	29.981 
19:50	10.9	10.9	10.9	81	6.2	2	5	270	0.00	29.981 
19:55	11.1	11.1	11.1	81	6.4	3	12	248	0.00	29.981 
20:00	11.1	11.1	11.1	81	6.4	2	7	248	0.00	29.972 
20:05	11.2	11.2	11.2	81	6.5	2	6	248	0.00	29.972 
20:10	11.2	11.2	11.2	81	6.5	2	7	248	0.00	29.972 
20:15	11.4	11.4	11.4	80	6.5	2	7	248	0.00	29.956 
20:20	11.6	11.6	11.6	80	6.6	1	5	270	0.00	29.956 
20:25	11.6	11.6	11.6	80	6.6	2	9	248	0.00	29.956 
20:30	11.7	11.7	11.7	80	6.7	2	6	248	0.00	29.957 
20:35	11.7	11.7	11.7	80	6.7	2	7	248	0.00	29.957 
20:40	11.9	11.9	11.9	80	6.9	2	7	248	0.00	29.957 
20:45	12.1	12.1	12.1	80	7.1	3	9	248	0.00	29.952 
20:50	12.3	12.3	12.3	80	7.3	2	12	248	0.00	29.952 
20:55	12.3	12.3	12.3	80	7.3	3	11	248	0.00	29.952 
21:00	12.4	5.4	12.4	80	7.4	4	11	248	0.00	29.945 
21:05	12.6	12.6	12.6	79	7.3	2	6	248	0.00	29.945 
21:10	12.8	12.8	12.8	79	7.5	2	6	248	0.00	29.945 
21:15	12.9	12.9	12.9	79	7.6	2	7	248	0.00	29.934 
21:20	12.9	12.9	12.9	79	7.6	3	10	248	0.00	29.934 
21:25	13.1	13.1	13.1	79	7.8	2	7	248	0.00	29.934 
21:30	13.1	13.1	13.1	79	7.8	2	6	248	0.00	29.922 
21:35	13.3	13.3	13.3	79	8.0	3	7	248	0.00	29.922 
21:40	13.5	13.5	13.5	79	8.2	3	11	248	0.00	29.922 
21:45	13.5	13.5	13.5	78	7.9	3	10	248	0.00	29.915 
21:50	13.6	13.6	13.6	78	8.0	2	10	248	0.00	29.915 
21:55	13.8	13.8	13.8	78	8.2	3	6	248	0.00	29.915 
22:00	14.0	14.0	14.0	77	8.1	2	6	248	0.00	29.902 
22:05	14.1	14.1	14.1	77	8.2	3	10	248	0.00	29.902 
22:10	14.3	14.3	14.3	77	8.4	3	9	248	0.00	29.902 
22:15	14.4	7.7	14.4	77	8.5	4	11	248	0.00	29.887 
22:20	14.4	14.4	14.4	77	8.5	3	7	248	0.00	29.887 
22:25	14.4	14.4	14.4	77	8.5	3	9	248	0.00	29.887 
22:30	14.6	14.6	14.6	77	8.7	2	12	248	0.00	29.884 
22:35	14.6	14.6	14.6	77	8.7	3	10	248	0.00	29.884 
22:40	14.8	14.8	14.8	77	8.9	3	10	248	0.00	29.884 
22:45	14.9	14.9	14.9	77	9.0	3	10	248	0.00	29.876 
22:50	15.1	15.1	15.1	77	9.2	3	9	248	0.00	29.876 
22:55	15.1	15.1	15.1	77	9.2	2	10	248	0.00	29.876 
23:00	15.2	15.2	15.2	77	9.3	3	10	248	0.00	29.870 
23:05	15.4	15.4	15.4	77	9.5	3	9	248	0.00	29.870 
23:10	15.4	15.4	15.4	77	9.5	3	11	248	0.00	29.870 
23:15	15.6	15.6	15.6	77	9.7	2	9	248	0.00	29.865 
23:20	15.7	15.7	15.7	77	9.8	3	7	248	0.00	29.865 
23:25	15.7	15.7	15.7	77	9.8	3	12	248	0.00	29.865 
23:30	15.9	15.9	15.9	78	10.3	3	11	248	0.00	29.863 
23:35	15.9	15.9	15.9	78	10.3	3	9	248	0.00	29.863 
23:40	15.9	15.9	15.9	79	10.6	3	11	248	0.00	29.863 
23:45	15.9	15.9	15.9	80	10.8	3	10	248	0.00	29.856 
23:50	15.9	15.9	15.9	80	10.8	3	10	248	0.00	29.856 
23:55	16.1	8.4	16.1	81	11.3	5	11	248	0.00	29.856 

CoCoRaHS
IN-AL-39
A2 Web Hosting
Creative Commons License
GoDaddy
search engine by freefind advanced

loaded 2018-11-12 15:14:25 • last modified 2010-11-18 10:43:29
Privacy PolicyDisclaimer
• wx.awcolley.com is powered by PmWiki v.2002016 •
• all content (unless otherwise noted) © 2018 A W Colley